Y70 weather

Ionia County Airport
Ionia, Michigan, United States

Public forecast

Using degrees Fahrenheit for public forecast. Weather courtesy of forecast.io.

Current aviation weather report (METAR) for Ionia County Airport

Retrieved 2019/10/18 23:40 UTC (0 seconds ago):

KY70 182340Z AUTO 11004KT 10SM CLR 08/03 A3000 RMK AO2 T00830027

Closest aviation forecast (TAF) to Ionia County Airport

Closest forecast is Gerald R. Ford International Airport, 20.6 nm (38.2 km) W. Retrieved 2019/10/18 18:33 UTC (5 hours ago):

TAF KGRR 181731Z 1818/1918 14005KT P6SM SCT250 FM191500 15009KT P6SM FEW250